Time;durP1;ratioP1;P1;durP2;ratioP2;P2;SDS_P1;SDS_P2;PMS_P1;PMS_P2;Temp;Humidity;BMP_temperature;BMP_pressure;BME280_temperature;BME280_humidity;BME280_pressure;Samples;Min_cycle;Max_cycle;Signal;HPM_P1;HPM_P2
2022/11/30 00:01:19;;;;;;;1.67;1.65;;;;;;;9.15;75.12;102392.06;5103992;28;20042;-81
2022/11/30 00:03:45;;;;;;;0.20;0.20;;;;;;;9.14;75.29;102390.28;5100261;28;20119;-80
2022/11/30 00:06:15;;;;;;;0.57;0.57;;;;;;;9.16;75.41;102385.88;5115126;28;20027;-81
2022/11/30 00:08:41;;;;;;;0.45;0.45;;;;;;;9.22;75.10;102383.31;5115359;28;20030;-81
2022/11/30 00:11:13;;;;;;;0.22;0.22;;;;;;;9.29;75.29;102386.91;5116038;28;20019;-81
2022/11/30 00:13:40;;;;;;;0.20;0.20;;;;;;;9.29;75.34;102385.16;5113422;28;20023;-81
2022/11/30 00:16:06;;;;;;;0.15;0.15;;;;;;;9.31;75.08;102391.34;5103557;28;20081;-81
2022/11/30 00:18:32;;;;;;;1.38;1.27;;;;;;;9.33;75.32;102389.63;5096528;28;20066;-81
2022/11/30 00:21:00;;;;;;;0.43;0.43;;;;;;;9.35;75.47;102392.28;5104495;28;20039;-80
2022/11/30 00:23:30;;;;;;;0.15;0.15;;;;;;;9.36;75.16;102387.00;5116429;28;20395;-80
2022/11/30 00:26:03;;;;;;;0.30;0.30;;;;;;;9.40;75.39;102390.56;5116522;28;20034;-81
2022/11/30 00:28:31;;;;;;;0.73;0.73;;;;;;;9.41;75.30;102391.44;5113362;28;20085;-81
2022/11/30 00:30:59;;;;;;;0.63;0.63;;;;;;;9.43;75.07;102394.97;5101337;28;20028;-81
2022/11/30 00:33:26;;;;;;;0.20;0.20;;;;;;;9.46;75.43;102395.00;5097623;28;20083;-81
2022/11/30 00:36:01;;;;;;;0.30;0.30;;;;;;;9.51;75.60;102388.03;5110533;28;20107;-81
2022/11/30 00:38:27;;;;;;;0.68;0.68;;;;;;;9.50;75.32;102388.88;5115873;28;20458;-81
2022/11/30 00:40:55;;;;;;;0.20;0.20;;;;;;;9.51;75.63;102390.66;5102633;28;20031;-82
2022/11/30 00:43:21;;;;;;;0.20;0.20;;;;;;;9.52;75.57;102388.03;5113656;28;20016;-81
2022/11/30 00:45:47;;;;;;;0.20;0.20;;;;;;;9.54;75.51;102386.28;5094816;28;20069;-81
2022/11/30 00:48:13;;;;;;;0.73;0.73;;;;;;;9.55;75.11;102380.09;5102090;28;20019;-81
2022/11/30 00:50:40;;;;;;;0.13;0.13;;;;;;;9.57;75.46;102381.88;5114240;28;20028;-81
2022/11/30 00:53:06;;;;;;;0.10;0.10;;;;;;;9.58;75.34;102383.66;5113945;28;20024;-81
2022/11/30 00:55:32;;;;;;;0.20;0.20;;;;;;;9.60;75.23;102377.50;5111696;28;20086;-81
2022/11/30 00:57:59;;;;;;;0.20;0.20;;;;;;;9.61;75.26;102379.28;5107121;28;20047;-81
2022/11/30 01:00:26;;;;;;;0.30;0.30;;;;;;;9.63;75.00;102387.22;5095997;28;20032;-81
2022/11/30 01:02:54;;;;;;;0.95;0.95;;;;;;;9.63;74.95;102382.84;5096630;28;20024;-82
2022/11/30 01:05:21;;;;;;;0.10;0.10;;;;;;;9.64;75.08;102381.94;5111068;28;20070;-82
2022/11/30 01:07:47;;;;;;;0.10;0.10;;;;;;;9.63;74.76;102393.44;5113565;28;20019;-81
2022/11/30 01:10:13;;;;;;;0.20;0.20;;;;;;;9.61;74.83;102391.59;5113737;28;20152;-82
2022/11/30 01:12:39;;;;;;;0.88;0.88;;;;;;;9.58;74.80;102395.13;5102608;28;20074;-81
2022/11/30 01:15:06;;;;;;;0.20;0.20;;;;;;;9.58;75.01;102389.81;5101299;28;20123;-82
2022/11/30 01:17:33;;;;;;;1.85;1.65;;;;;;;9.57;74.77;102398.66;5104869;28;20032;-81
2022/11/30 01:19:59;;;;;;;0.10;0.10;;;;;;;9.55;74.82;102400.41;5105909;28;20036;-83
2022/11/30 01:22:25;;;;;;;0.17;0.17;;;;;;;9.53;74.85;102396.84;5111035;28;20028;-82
2022/11/30 01:24:51;;;;;;;0.32;0.32;;;;;;;9.49;74.81;102395.03;5113379;28;20118;-81
2022/11/30 01:27:17;;;;;;;0.10;0.10;;;;;;;9.45;74.78;102395.91;5096805;28;20027;-82
2022/11/30 01:29:43;;;;;;;0.10;0.10;;;;;;;9.41;74.75;102397.63;5103911;28;20387;-82
2022/11/30 01:32:09;;;;;;;0.20;0.20;;;;;;;9.38;74.95;102397.56;5106202;28;20475;-82
2022/11/30 01:34:35;;;;;;;0.32;0.32;;;;;;;9.35;74.62;102401.06;5111313;28;20023;-81
2022/11/30 01:37:01;;;;;;;0.10;0.10;;;;;;;9.32;74.80;102397.50;5106932;28;20062;-81
2022/11/30 01:39:27;;;;;;;0.75;0.75;;;;;;;9.27;74.56;102400.13;5107378;28;20024;-80
2022/11/30 01:41:54;;;;;;;1.10;0.65;;;;;;;9.24;74.57;102400.09;5096399;28;20036;-81
2022/11/30 01:47:02;;;;;;;0.30;0.30;;;;;;;9.21;74.58;102400.06;5108785;27;20398;-81
2022/11/30 01:49:30;;;;;;;;;;;;;;;9.28;74.48;102396.59;5106914;28;20066;-81
2022/11/30 01:54:55;;;;;;;0.30;0.30;;;;;;;9.16;74.59;102394.72;5095648;27;1461043;-82
2022/11/30 01:57:30;;;;;;;0.10;0.10;;;;;;;9.14;74.55;102403.50;5132559;27;20034;-82
2022/11/30 01:59:59;;;;;;;1.27;1.27;;;;;;;9.11;74.67;102408.75;5135060;27;20540;-82
2022/11/30 02:02:36;;;;;;;0.20;0.20;;;;;;;9.10;74.41;102409.63;5133797;27;20042;-82
2022/11/30 02:05:03;;;;;;;0.38;0.38;;;;;;;9.09;74.70;102407.88;5135495;28;20023;-83
2022/11/30 02:07:29;;;;;;;0.10;0.10;;;;;;;9.09;74.81;102408.75;5132410;27;20106;-83
2022/11/30 02:09:55;;;;;;;0.30;0.30;;;;;;;9.07;75.06;102408.72;5134699;28;20100;-82
2022/11/30 02:12:33;;;;;;;0.10;0.10;;;;;;;9.14;75.17;102406.16;5129096;27;20024;-83
2022/11/30 02:15:07;;;;;;;0.20;0.20;;;;;;;9.15;74.82;102406.16;5132415;27;20031;-82
2022/11/30 02:20:40;;;;;;;0.10;0.10;;;;;;;9.20;75.07;102411.50;5066174;28;20369;-81
2022/11/30 02:26:30;;;;;;;0.10;0.10;;;;;;;9.18;74.62;102406.22;5069504;28;20446;-80
2022/11/30 02:29:20;;;;;;;0.20;0.20;;;;;;;9.19;75.01;102412.38;5058119;28;20117;-81
2022/11/30 02:32:11;;;;;;;0.10;0.10;;;;;;;9.18;75.01;102415.88;5047049;28;20025;-80
2022/11/30 02:34:40;;;;;;;0.10;0.10;;;;;;;9.17;75.08;102414.09;5048806;28;20071;-80
2022/11/30 02:37:08;;;;;;;0.93;0.85;;;;;;;9.18;74.94;102413.25;5042588;28;20029;-80
2022/11/30 02:39:34;;;;;;;1.17;1.08;;;;;;;9.14;74.99;102408.78;5049362;28;20029;-80
2022/11/30 02:42:00;;;;;;;0.25;0.25;;;;;;;9.09;75.10;102415.78;5048736;28;20083;-80
2022/11/30 02:44:28;;;;;;;1.13;1.13;;;;;;;9.04;75.05;102421.91;5048368;28;20025;-80
2022/11/30 02:47:07;;;;;;;0.20;0.20;;;;;;;8.99;75.13;102415.66;5046266;28;20128;-80
2022/11/30 02:49:57;;;;;;;0.30;0.30;;;;;;;8.88;74.84;102414.66;5047666;28;20034;-81
2022/11/30 02:52:26;;;;;;;0.10;0.10;;;;;;;8.78;74.41;102420.72;5039535;28;20421;-80
2022/11/30 02:55:01;;;;;;;0.10;0.10;;;;;;;8.73;74.51;102418.91;5046287;28;20032;-80
2022/11/30 02:57:27;;;;;;;0.20;0.20;;;;;;;8.68;74.07;102425.84;5050550;28;20480;-81
2022/11/30 02:59:54;;;;;;;0.73;0.73;;;;;;;8.57;74.53;102427.47;5046926;28;20040;-81
2022/11/30 03:02:20;;;;;;;0.10;0.10;;;;;;;8.53;74.38;102423.88;5047583;28;20029;-80
2022/11/30 03:04:46;;;;;;;0.10;0.10;;;;;;;8.42;73.84;102426.38;5039162;28;20076;-81
2022/11/30 03:07:12;;;;;;;0.25;0.25;;;;;;;8.33;74.31;102426.22;5042811;28;20075;-81
2022/11/30 03:09:38;;;;;;;0.20;0.20;;;;;;;8.26;73.50;102433.16;5044361;28;20031;-82
2022/11/30 03:12:05;;;;;;;0.22;0.22;;;;;;;8.23;73.88;102432.22;5048422;28;20740;-82
2022/11/30 03:14:31;;;;;;;0.10;0.10;;;;;;;8.18;73.49;102428.63;5035571;28;20052;-81
2022/11/30 03:16:57;;;;;;;0.20;0.20;;;;;;;8.14;73.29;102437.34;5044084;28;20030;-81
2022/11/30 03:19:23;;;;;;;0.10;0.10;;;;;;;8.05;73.18;102436.38;5040192;28;20060;-81
2022/11/30 03:21:49;;;;;;;0.20;0.20;;;;;;;7.98;73.29;102434.47;5041480;28;20034;-81
2022/11/30 03:24:15;;;;;;;0.22;0.22;;;;;;;7.92;73.30;102431.75;5045885;28;20071;-81
2022/11/30 03:26:41;;;;;;;0.10;0.10;;;;;;;7.86;73.13;102435.19;5045089;28;20557;-81
2022/11/30 03:29:08;;;;;;;0.10;0.10;;;;;;;7.79;73.14;102425.38;5047470;28;20108;-81
2022/11/30 03:31:34;;;;;;;0.20;0.20;;;;;;;7.73;73.49;102439.34;5044159;28;20025;-82
2022/11/30 03:34:00;;;;;;;0.15;0.15;;;;;;;7.67;73.38;102436.59;5041615;28;20087;-82
2022/11/30 03:36:26;;;;;;;0.10;0.10;;;;;;;7.60;72.78;102437.34;5035537;28;20504;-81
2022/11/30 03:38:52;;;;;;;0.20;0.20;;;;;;;7.56;72.99;102439.06;5035805;28;20030;-82
2022/11/30 03:41:18;;;;;;;0.10;0.10;;;;;;;7.54;73.12;102434.59;5035221;28;20087;-81
2022/11/30 03:43:46;;;;;;;0.25;0.25;;;;;;;7.53;72.71;102446.03;5033547;28;20116;-81
2022/11/30 03:46:12;;;;;;;0.15;0.15;;;;;;;7.52;72.58;102441.59;5032563;28;20090;-81
2022/11/30 03:48:40;;;;;;;0.10;0.10;;;;;;;7.50;73.38;102443.31;5025196;28;20022;-82
2022/11/30 03:51:06;;;;;;;1.33;1.23;;;;;;;7.43;73.28;102440.56;5033817;28;20432;-81
2022/11/30 03:53:33;;;;;;;0.32;0.32;;;;;;;7.41;73.09;102444.03;5031720;28;20041;-82
2022/11/30 03:56:02;;;;;;;3.30;0.85;;;;;;;7.39;73.25;102449.28;5030064;28;20026;-82
2022/11/30 03:58:28;;;;;;;0.10;0.10;;;;;;;7.36;73.44;102454.47;5035226;28;20466;-81
2022/11/30 04:01:03;;;;;;;0.47;0.47;;;;;;;7.34;73.48;102453.59;5029142;28;20518;-81
2022/11/30 04:03:29;;;;;;;0.73;0.68;;;;;;;7.32;73.23;102449.16;5024637;28;20049;-82
2022/11/30 04:05:56;;;;;;;0.10;0.10;;;;;;;7.31;72.97;102445.59;5032465;28;20036;-82
2022/11/30 04:08:23;;;;;;;0.10;0.10;;;;;;;7.33;73.27;102451.81;5016782;28;20025;-81
2022/11/30 04:10:52;;;;;;;0.10;0.10;;;;;;;7.37;73.10;102455.41;5017368;28;20109;-82
2022/11/30 04:13:19;;;;;;;0.20;0.20;;;;;;;7.40;73.68;102464.25;5023042;28;20029;-82
2022/11/30 04:15:46;;;;;;;0.17;0.17;;;;;;;7.48;73.76;102455.56;5018929;28;20034;-82
2022/11/30 04:18:13;;;;;;;0.15;0.15;;;;;;;7.52;73.67;102454.78;5016171;28;20066;-81
2022/11/30 04:20:40;;;;;;;0.20;0.20;;;;;;;7.55;74.18;102455.75;5013585;28;20097;-82
2022/11/30 04:23:07;;;;;;;0.10;0.10;;;;;;;7.60;73.95;102453.16;5014134;28;20055;-82
2022/11/30 04:25:33;;;;;;;0.10;0.10;;;;;;;7.64;74.55;102452.38;5013765;28;20026;-82
2022/11/30 04:27:59;;;;;;;0.13;0.13;;;;;;;7.70;74.38;102449.84;5011182;28;20050;-82
2022/11/30 04:30:26;;;;;;;0.10;0.10;;;;;;;7.76;74.68;102449.97;5012444;28;20033;-81
2022/11/30 04:32:52;;;;;;;0.15;0.15;;;;;;;7.84;74.77;102454.47;5010581;28;20160;-81
2022/11/30 04:35:18;;;;;;;0.20;0.20;;;;;;;7.89;74.20;102458.97;5013455;28;20036;-81
2022/11/30 04:37:44;;;;;;;0.20;0.20;;;;;;;7.93;74.31;102459.91;5014714;28;20033;-82
2022/11/30 04:40:10;;;;;;;0.40;0.40;;;;;;;7.99;74.98;102460.00;5016439;28;20061;-82
2022/11/30 04:42:37;;;;;;;0.47;0.38;;;;;;;8.05;75.10;102462.75;5016081;28;20030;-81
2022/11/30 04:45:03;;;;;;;0.20;0.20;;;;;;;8.13;75.21;102464.66;5014949;28;20567;-81
2022/11/30 04:47:29;;;;;;;0.30;0.30;;;;;;;8.18;74.57;102460.31;5013027;28;20033;-81
2022/11/30 04:49:55;;;;;;;0.10;0.10;;;;;;;8.19;75.21;102462.97;5015790;28;20044;-81
2022/11/30 04:52:21;;;;;;;0.10;0.10;;;;;;;8.21;74.87;102466.53;5015866;28;20041;-81
2022/11/30 04:54:47;;;;;;;0.10;0.10;;;;;;;8.22;74.64;102468.31;5016229;28;20061;-81
2022/11/30 04:57:13;;;;;;;0.20;0.20;;;;;;;8.25;75.06;102465.72;5016569;28;20486;-81
2022/11/30 04:59:39;;;;;;;0.10;0.10;;;;;;;8.28;75.08;102461.34;5015111;28;20061;-81
2022/11/30 05:02:06;;;;;;;0.20;0.20;;;;;;;8.32;75.62;102464.03;5016360;28;20037;-83
2022/11/30 05:04:32;;;;;;;0.10;0.10;;;;;;;8.35;75.21;102469.41;5015171;28;20022;-80
2022/11/30 05:06:58;;;;;;;0.28;0.28;;;;;;;8.39;75.66;102470.34;5016555;28;20120;-81
2022/11/30 05:09:24;;;;;;;0.10;0.10;;;;;;;8.42;75.01;102476.56;5016124;28;20079;-81
2022/11/30 05:11:50;;;;;;;0.22;0.22;;;;;;;8.47;75.56;102473.13;5016312;28;20026;-80
2022/11/30 05:14:16;;;;;;;0.10;0.10;;;;;;;8.48;75.60;102478.41;5015726;28;20112;-82
2022/11/30 05:16:42;;;;;;;0.10;0.10;;;;;;;8.49;74.93;102471.41;5016186;28;20097;-81
2022/11/30 05:19:08;;;;;;;0.10;0.10;;;;;;;8.50;74.96;102475.78;5015160;28;20030;-81
2022/11/30 05:21:34;;;;;;;0.10;0.10;;;;;;;8.49;75.29;102477.56;5010142;28;20560;-81
2022/11/30 05:24:00;;;;;;;0.10;0.10;;;;;;;8.50;75.36;102471.41;5011380;28;20076;-82
2022/11/30 05:26:26;;;;;;;0.10;0.10;;;;;;;8.51;75.28;102478.47;5015667;28;20037;-81
2022/11/30 05:28:52;;;;;;;0.20;0.20;;;;;;;8.51;75.48;102475.84;5018297;28;20034;-81
2022/11/30 05:31:19;;;;;;;0.20;0.20;;;;;;;8.53;74.96;102478.50;5020807;28;20033;-82
2022/11/30 05:33:49;;;;;;;0.40;0.40;;;;;;;8.53;75.44;102473.22;5009976;28;20042;-82
2022/11/30 05:36:15;;;;;;;0.10;0.10;;;;;;;8.50;75.42;102473.16;5016563;28;20491;-82
2022/11/30 05:38:42;;;;;;;0.10;0.10;;;;;;;8.48;74.97;102466.97;5015893;28;20068;-82
2022/11/30 05:41:08;;;;;;;0.20;0.20;;;;;;;8.43;75.52;102467.75;5016670;28;20029;-81
2022/11/30 05:43:34;;;;;;;0.82;0.82;;;;;;;8.41;75.67;102469.50;5017148;28;20037;-81
2022/11/30 05:46:02;;;;;;;0.10;0.10;;;;;;;8.37;76.04;102470.31;5015362;28;20042;-82
2022/11/30 05:48:28;;;;;;;0.20;0.20;;;;;;;8.41;75.73;102474.78;5014351;28;20049;-81
2022/11/30 05:50:54;;;;;;;0.10;0.10;;;;;;;8.43;75.23;102470.38;5014768;28;20604;-81
2022/11/30 05:53:20;;;;;;;0.17;0.17;;;;;;;8.45;75.74;102475.72;5016010;28;20595;-81
2022/11/30 05:55:46;;;;;;;0.17;0.17;;;;;;;8.48;75.02;102474.91;5015377;28;20402;-81
2022/11/30 05:58:12;;;;;;;0.35;0.35;;;;;;;8.53;75.12;102479.38;5015100;28;20030;-82
2022/11/30 06:00:38;;;;;;;0.20;0.20;;;;;;;8.58;75.50;102485.63;5011762;28;20603;-81
2022/11/30 06:03:04;;;;;;;0.85;0.85;;;;;;;8.61;75.24;102484.78;5015636;28;20041;-81
2022/11/30 06:05:35;;;;;;;0.17;0.17;;;;;;;8.65;75.16;102483.06;5015713;28;20026;-81
2022/11/30 06:08:01;;;;;;;0.20;0.20;;;;;;;8.66;75.51;102491.03;5015428;28;20061;-82
2022/11/30 06:10:27;;;;;;;0.20;0.20;;;;;;;8.72;75.45;102495.50;5015158;28;20029;-82
2022/11/30 06:12:53;;;;;;;0.10;0.10;;;;;;;8.76;75.37;102485.84;5015263;28;20084;-81
2022/11/30 06:15:19;;;;;;;0.10;0.10;;;;;;;8.80;75.32;102495.59;5014750;28;20034;-81
2022/11/30 06:17:45;;;;;;;0.30;0.30;;;;;;;8.82;75.17;102491.22;5015255;28;20046;-80
2022/11/30 06:20:11;;;;;;;0.00;0.00;;;;;;;8.86;75.21;102495.69;5021268;28;20030;-81
2022/11/30 06:22:37;;;;;;;0.20;0.20;;;;;;;8.87;75.23;102487.78;5022333;28;20057;-82
2022/11/30 06:25:04;;;;;;;0.10;0.10;;;;;;;8.89;75.50;102490.44;5014317;28;20033;-81
2022/11/30 06:27:31;;;;;;;0.15;0.15;;;;;;;8.92;75.10;102497.53;5017040;28;20400;-81
2022/11/30 06:29:57;;;;;;;0.10;0.10;;;;;;;8.94;75.60;102498.44;5013344;28;20509;-82
2022/11/30 06:32:23;;;;;;;0.10;0.10;;;;;;;8.94;75.03;102496.69;5030865;28;20032;-82
2022/11/30 06:34:49;;;;;;;0.17;0.17;;;;;;;8.95;75.68;102493.19;5030970;28;20030;-81
2022/11/30 06:37:15;;;;;;;0.28;0.28;;;;;;;8.97;75.58;102494.09;5026721;28;20041;-81
2022/11/30 06:39:41;;;;;;;0.30;0.30;;;;;;;8.99;75.71;102500.28;5014871;28;20091;-81
2022/11/30 06:42:07;;;;;;;0.40;0.40;;;;;;;9.00;75.22;102494.13;5017848;28;20029;-83
2022/11/30 06:44:33;;;;;;;0.50;0.50;;;;;;;8.98;75.14;102495.84;5015010;28;20045;-80
2022/11/30 06:46:59;;;;;;;0.35;0.35;;;;;;;9.01;75.10;102497.63;5022506;28;20026;-81
2022/11/30 06:49:25;;;;;;;0.68;0.68;;;;;;;9.01;75.59;102493.25;5013993;28;20037;-82
2022/11/30 06:51:51;;;;;;;0.20;0.20;;;;;;;9.02;75.61;102500.31;5027274;28;20041;-82
2022/11/30 06:54:17;;;;;;;0.55;0.55;;;;;;;9.04;75.25;102498.56;5030899;28;20057;-83
2022/11/30 06:56:43;;;;;;;0.13;0.13;;;;;;;9.06;75.67;102499.50;5040823;28;20038;-81
2022/11/30 06:59:09;;;;;;;1.38;0.73;;;;;;;9.09;75.85;102501.28;5031862;28;20110;-81
2022/11/30 07:01:35;;;;;;;0.98;0.55;;;;;;;9.12;75.74;102505.72;5034205;28;20028;-82
2022/11/30 07:04:02;;;;;;;0.10;0.10;;;;;;;9.10;75.14;102503.06;5029349;28;20053;-82
2022/11/30 07:06:28;;;;;;;0.10;0.10;;;;;;;9.12;75.87;102508.38;5029476;28;20065;-82
2022/11/30 07:08:54;;;;;;;0.17;0.17;;;;;;;9.13;75.70;102512.78;5025107;28;20026;-82
2022/11/30 07:11:20;;;;;;;0.10;0.10;;;;;;;9.16;75.77;102516.38;5028581;28;20037;-83
2022/11/30 07:13:46;;;;;;;0.20;0.20;;;;;;;9.18;75.43;102517.28;5021596;28;20037;-82
2022/11/30 07:16:12;;;;;;;0.10;0.10;;;;;;;9.22;75.58;102524.38;5034529;28;20107;-83
2022/11/30 07:18:38;;;;;;;1.02;1.02;;;;;;;9.25;75.68;102520.00;5018337;28;20076;-85
2022/11/30 07:21:05;;;;;;;0.30;0.30;;;;;;;9.27;75.57;102529.75;5017306;28;20026;-83
2022/11/30 07:26:17;;;;;;;0.40;0.40;;;;;;;9.32;75.71;102535.06;5018320;28;20061;-81
2022/11/30 07:28:45;;;;;;;0.20;0.20;;;;;;;9.34;75.50;102534.22;5018881;28;20049;-82
2022/11/30 07:31:22;;;;;;;0.10;0.10;;;;;;;9.38;75.40;102535.13;5012512;28;20117;-82
2022/11/30 07:33:49;;;;;;;0.10;0.10;;;;;;;9.35;75.52;102541.28;5022324;28;20104;-83
2022/11/30 07:36:18;;;;;;;0.10;0.10;;;;;;;9.36;75.55;102540.41;5023309;28;20537;-82
2022/11/30 07:38:44;;;;;;;0.45;0.45;;;;;;;9.38;75.74;102538.69;5027199;28;20094;-82
2022/11/30 07:41:11;;;;;;;0.20;0.20;;;;;;;9.39;75.58;102543.13;5016396;28;20053;-82
2022/11/30 07:43:37;;;;;;;0.38;0.38;;;;;;;9.41;75.65;102540.47;5016536;28;20108;-82
2022/11/30 07:46:04;;;;;;;0.20;0.20;;;;;;;9.44;75.61;102548.44;5032244;28;20049;-82
2022/11/30 07:48:30;;;;;;;0.32;0.32;;;;;;;9.46;75.72;102545.81;5047432;28;20021;-82
2022/11/30 07:51:03;;;;;;;2.08;1.00;;;;;;;9.52;75.59;102556.47;5042806;28;20022;-83
2022/11/30 07:53:30;;;;;;;0.40;0.40;;;;;;;9.50;75.79;102560.88;5032816;28;20057;-81
2022/11/30 07:56:01;;;;;;;0.20;0.20;;;;;;;9.53;75.88;102559.16;5028140;28;20022;-83
2022/11/30 07:58:29;;;;;;;1.83;1.75;;;;;;;9.50;75.57;102566.16;5019165;28;20033;-82
2022/11/30 08:01:01;;;;;;;0.13;0.13;;;;;;;9.52;75.53;102561.75;5035574;28;20024;-82
2022/11/30 08:03:27;;;;;;;0.20;0.20;;;;;;;9.49;75.26;102574.97;5032149;28;20026;-83
2022/11/30 08:05:53;;;;;;;0.10;0.10;;;;;;;9.48;75.66;102567.88;5019854;28;20026;-84
2022/11/30 08:08:19;;;;;;;0.10;0.10;;;;;;;9.47;75.34;102571.41;5019091;28;20030;-83
2022/11/30 08:10:45;;;;;;;0.10;0.10;;;;;;;9.48;75.53;102573.19;5021446;28;20053;-84
2022/11/30 08:13:11;;;;;;;0.10;0.10;;;;;;;9.48;75.40;102570.53;5010771;28;20040;-85
2022/11/30 08:15:37;;;;;;;0.20;0.20;;;;;;;9.47;75.43;102571.41;5018609;28;20030;-85
2022/11/30 08:18:05;;;;;;;0.47;0.47;;;;;;;9.47;75.45;102584.63;5018832;28;20068;-84
2022/11/30 08:20:31;;;;;;;0.20;0.20;;;;;;;9.47;75.51;102581.97;5017788;28;20053;-84
2022/11/30 08:22:58;;;;;;;0.32;0.32;;;;;;;9.47;75.69;102588.19;5017881;28;20029;-85
2022/11/30 08:25:24;;;;;;;0.30;0.30;;;;;;;9.50;75.22;102589.97;5017231;28;20065;-83
2022/11/30 08:27:50;;;;;;;0.20;0.20;;;;;;;9.51;75.71;102590.00;5017355;28;20042;-83
2022/11/30 08:30:16;;;;;;;1.58;1.38;;;;;;;9.52;75.68;102591.78;5017726;28;20136;-84
2022/11/30 08:32:42;;;;;;;0.10;0.10;;;;;;;9.53;75.29;102592.66;5025347;28;20518;-82
2022/11/30 08:35:09;;;;;;;0.90;0.57;;;;;;;9.49;75.47;102597.00;5017596;28;20493;-83
2022/11/30 08:37:36;;;;;;;0.10;0.10;;;;;;;9.53;75.23;102592.66;5018085;28;20173;-82
2022/11/30 08:40:04;;;;;;;0.30;0.30;;;;;;;9.53;75.09;102593.56;5018524;28;20510;-82
2022/11/30 08:42:30;;;;;;;0.82;0.82;;;;;;;9.54;75.03;102597.97;5021968;28;20515;-82
2022/11/30 08:44:56;;;;;;;4.63;2.00;;;;;;;9.55;75.04;102602.38;5018471;28;20032;-83
2022/11/30 08:47:22;;;;;;;0.63;0.63;;;;;;;9.60;75.11;102606.88;5020089;28;20049;-82
2022/11/30 08:49:48;;;;;;;0.25;0.25;;;;;;;9.65;75.73;102603.38;5016404;28;20030;-83
2022/11/30 08:52:14;;;;;;;0.10;0.10;;;;;;;9.69;75.72;102597.28;5015861;28;20087;-83
2022/11/30 08:54:43;;;;;;;0.30;0.30;;;;;;;9.75;75.54;102600.88;5017806;28;20497;-82
2022/11/30 08:57:09;;;;;;;0.30;0.30;;;;;;;9.79;75.57;102602.66;5016994;28;20067;-83
2022/11/30 08:59:35;;;;;;;0.10;0.10;;;;;;;9.84;75.55;102603.59;5020031;28;20093;-82
2022/11/30 09:02:02;;;;;;;1.55;0.73;;;;;;;9.87;75.73;102603.66;5021145;28;20030;-83
2022/11/30 09:04:28;;;;;;;0.73;0.73;;;;;;;9.90;75.56;102608.09;5018379;28;20026;-86
2022/11/30 09:06:57;;;;;;;0.20;0.20;;;;;;;9.93;75.44;102606.38;5025980;28;20513;-85
2022/11/30 09:09:24;;;;;;;0.10;0.10;;;;;;;9.97;75.30;102613.47;5022123;28;20056;-85
2022/11/30 09:11:50;;;;;;;0.20;0.20;;;;;;;10.03;75.60;102613.53;5024468;28;20021;-85
2022/11/30 09:14:16;;;;;;;0.20;0.20;;;;;;;10.07;75.44;102611.81;5023125;28;20487;-84
2022/11/30 09:16:42;;;;;;;0.40;0.40;;;;;;;10.13;75.59;102617.16;5034374;28;20089;-84
2022/11/30 09:19:09;;;;;;;0.17;0.17;;;;;;;10.17;75.46;102623.38;5028289;28;20037;-80
2022/11/30 09:21:35;;;;;;;0.20;0.20;;;;;;;10.22;75.69;102618.13;5035225;28;20033;-84
2022/11/30 09:24:01;;;;;;;3.30;0.68;;;;;;;10.24;75.60;102619.91;5034031;28;20053;-85
2022/11/30 09:26:28;;;;;;;0.30;0.30;;;;;;;10.27;75.47;102624.34;5018860;28;20506;-84
2022/11/30 09:28:54;;;;;;;0.93;0.90;;;;;;;10.28;75.69;102621.72;5033666;28;20033;-84
2022/11/30 09:31:23;;;;;;;0.30;0.30;;;;;;;10.32;75.50;102627.97;5024541;28;20100;-84
2022/11/30 09:33:49;;;;;;;0.10;0.10;;;;;;;10.33;75.30;102627.06;5021084;28;20051;-83
2022/11/30 09:36:18;;;;;;;1.67;1.23;;;;;;;10.36;75.11;102628.00;5020296;28;20065;-80
2022/11/30 09:38:45;;;;;;;0.10;0.10;;;;;;;10.36;75.52;102622.72;5015904;28;20033;-81
2022/11/30 09:46:38;;;;;;;0.10;0.10;;;;;;;10.54;75.36;102622.88;5052247;28;20388;-80
2022/11/30 09:49:21;;;;;;;0.28;0.28;;;;;;;10.56;75.50;102622.00;5051042;28;20041;-81
2022/11/30 09:51:48;;;;;;;0.20;0.20;;;;;;;10.54;75.09;102623.75;5054921;28;20104;-81
2022/11/30 09:54:20;;;;;;;0.10;0.10;;;;;;;10.55;75.25;102625.53;5055447;28;20082;-82
2022/11/30 09:56:46;;;;;;;0.55;0.55;;;;;;;10.57;75.22;102634.41;5050957;28;20024;-82
2022/11/30 09:59:21;;;;;;;3.60;1.20;;;;;;;10.61;75.44;102630.88;5054589;28;20126;-80
2022/11/30 10:01:47;;;;;;;0.20;0.20;;;;;;;10.62;75.14;102632.66;5053997;28;20543;-81
2022/11/30 10:07:22;;;;;;;0.10;0.10;;;;;;;10.70;75.19;102631.84;5074470;28;20790;-82
2022/11/30 10:10:03;;;;;;;0.35;0.35;;;;;;;10.75;75.36;102627.47;5072694;28;20056;-82
2022/11/30 10:12:41;;;;;;;0.10;0.10;;;;;;;10.77;75.15;102625.72;5064755;28;20368;-83
2022/11/30 10:15:25;;;;;;;0.20;0.20;;;;;;;10.81;74.90;102627.53;5072778;28;20036;-83
2022/11/30 10:17:54;;;;;;;0.88;0.88;;;;;;;10.80;74.99;102620.44;5065698;28;20131;-83
2022/11/30 10:21:00;;;;;;;1.20;1.20;;;;;;;10.89;74.92;102620.53;5071520;28;20032;-82
2022/11/30 10:26:20;;;;;;;0.20;0.20;;;;;;;10.98;75.04;102625.00;5094205;27;1183422;-83
2022/11/30 10:28:56;;;;;;;0.10;0.10;;;;;;;10.99;74.45;102627.66;5119028;28;20057;-82
2022/11/30 10:31:41;;;;;;;0.17;0.17;;;;;;;11.01;74.80;102627.66;5094236;28;20082;-80
2022/11/30 10:34:29;;;;;;;0.30;0.30;;;;;;;10.99;74.99;102629.41;5083745;28;20044;-80
2022/11/30 10:37:20;;;;;;;0.73;0.73;;;;;;;10.95;74.67;102631.16;5082770;28;20028;-80
2022/11/30 10:39:59;;;;;;;1.02;0.98;;;;;;;10.96;75.05;102632.91;5093373;28;20027;-80
2022/11/30 10:42:41;;;;;;;0.10;0.10;;;;;;;10.93;74.72;102632.91;5095317;28;20024;-79
2022/11/30 10:45:12;;;;;;;0.83;0.53;;;;;;;10.89;74.21;102625.81;5099474;28;20131;-80
2022/11/30 10:47:43;;;;;;;0.25;0.25;;;;;;;10.88;74.02;102632.00;5082856;28;20016;-80
2022/11/30 10:50:14;;;;;;;0.20;0.20;;;;;;;10.84;74.42;102627.53;5092920;28;20050;-80
2022/11/30 10:52:46;;;;;;;0.20;0.20;;;;;;;10.85;74.29;102616.03;5081297;28;20155;-80
2022/11/30 10:55:17;;;;;;;0.35;0.35;;;;;;;10.80;73.63;102620.44;5092244;28;20028;-80
2022/11/30 10:57:44;;;;;;;0.10;0.10;;;;;;;10.91;74.08;102624.06;5101269;28;20024;-79
2022/11/30 11:00:16;;;;;;;0.20;0.20;;;;;;;11.05;74.03;102610.00;5090313;28;20035;-80
2022/11/30 11:02:45;;;;;;;0.30;0.30;;;;;;;11.23;74.75;102614.56;5098504;28;20032;-80
2022/11/30 11:08:01;;;;;;;0.20;0.20;;;;;;;11.36;74.39;102607.53;5105566;27;20776;-81
2022/11/30 11:13:04;;;;;;;0.30;0.30;;;;;;;11.46;74.37;102604.03;5113579;27;20135;-80
2022/11/30 11:15:33;;;;;;;0.10;0.10;;;;;;;11.50;74.20;102600.50;5113389;28;20032;-78
2022/11/30 11:18:21;;;;;;;0.20;0.20;;;;;;;11.58;73.54;102604.09;5109461;28;20032;-83
2022/11/30 11:20:48;;;;;;;0.50;0.50;;;;;;;11.52;73.57;102606.72;5088066;28;20032;-83
2022/11/30 11:23:26;;;;;;;0.10;0.10;;;;;;;11.56;73.92;102602.31;5095919;28;20085;-82
2022/11/30 11:25:52;;;;;;;2.25;2.15;;;;;;;11.51;73.53;102610.25;5093098;28;20039;-82
2022/11/30 11:28:20;;;;;;;0.22;0.22;;;;;;;11.48;73.01;102607.59;5092874;28;20032;-81
2022/11/30 11:30:47;;;;;;;1.10;0.90;;;;;;;11.39;72.77;102608.44;5105031;28;20031;-82
2022/11/30 11:35:52;;;;;;;0.20;0.20;;;;;;;11.33;72.01;102606.63;5117282;27;20764;-81
2022/11/30 11:41:02;;;;;;;0.15;0.15;;;;;;;11.48;73.41;102600.50;5092316;27;20371;-82
2022/11/30 11:43:31;;;;;;;0.10;0.10;;;;;;;11.49;73.62;102596.09;5075804;28;20041;-81
2022/11/30 11:46:13;;;;;;;0.60;0.60;;;;;;;11.59;73.34;102597.00;5076092;28;20052;-82
2022/11/30 11:48:47;;;;;;;0.73;0.60;;;;;;;11.56;73.29;102597.88;5075099;28;20115;-82
2022/11/30 11:51:17;;;;;;;0.17;0.17;;;;;;;11.57;72.58;102604.09;5075820;28;20036;-81
2022/11/30 11:53:52;;;;;;;9.25;1.52;;;;;;;11.62;72.38;102602.34;5070163;28;20396;-81
2022/11/30 11:56:38;;;;;;;0.32;0.32;;;;;;;11.62;71.52;102599.69;5070528;28;20035;-83
2022/11/30 11:59:33;;;;;;;1.83;1.60;;;;;;;11.68;71.94;102601.47;5069444;28;20029;-82
2022/11/30 12:10:44;;;;;;;2.42;2.05;;;;;;;11.71;72.30;102596.16;5112615;27;20946;-82
2022/11/30 12:13:16;;;;;;;0.10;0.10;;;;;;;11.66;72.16;102593.50;5091122;28;20036;-82
2022/11/30 12:15:51;;;;;;;;;;;;;;;11.68;71.53;102598.84;5089225;28;20544;-82
2022/11/30 12:18:23;;;;;;;0.20;0.20;;;;;;;11.56;72.35;102592.56;5086405;28;19979;-82
2022/11/30 12:21:13;;;;;;;0.20;0.20;;;;;;;11.62;71.91;102597.91;5077301;28;20021;-82
2022/11/30 12:24:13;;;;;;;0.20;0.20;;;;;;;11.73;72.64;102599.72;5077751;28;20044;-83